COMO2: Grand River, Commerce, OK

                                SHEF ID:       COMO2     Neosho River nr Commerce, OK
STATION TYPE:
Regulating: Stage = 15.00, Flow = 21598

PRECIP STAGE STAGE(2) RIV-FLOW BAT-LOAD
in ft ft cfs volt
Ccp-Rev Ccp-Rev Ccp-Rev Ccp-Rev Ccp-Rev
(America/Chicago)
02/19 00:00 0.00 4.02 ---- 2350 12.36
02/19 01:00 0.00 4.00 ---- 2316 12.34
02/19 02:00 0.00 3.98 ---- 2282 12.34
02/19 03:00 0.00 3.97 ---- 2265 12.31
02/19 04:00 0.00 3.95 ---- 2231 12.29
02/19 05:00 0.00 3.93 ---- 2197 12.26
02/19 06:00 0.00 3.91 ---- 2162 12.25
02/19 07:00 0.00 3.90 ---- 2145 12.24
02/19 08:00 0.00 3.89 ---- 2128 12.37
02/19 09:00 0.00 3.87 ---- 2093 13.24
02/19 10:00 0.00 3.85 ---- 2059 13.22
02/19 11:00 0.00 3.86 ---- 2076 13.10
02/19 12:00 0.00 3.86 ---- 2076 13.03
02/19 13:00 0.00 3.85 ---- 2059 13.03
02/19 14:00 0.00 3.87 ---- 2093 13.03
02/19 15:00 0.00 3.89 ---- 2128 12.98
02/19 16:00 0.00 3.94 ---- 2214 12.94
02/19 17:00 0.00 3.99 ---- 2299 12.99
02/19 18:00 0.00 4.07 ---- 2436 12.79
02/19 19:00 0.00 4.15 ---- 2574 12.57
02/19 20:00 0.00 4.23 ---- 2710 12.46
02/19 21:00 0.00 4.32 ---- 2864 12.42
02/19 22:00 0.00 4.43 ---- 3053 12.38
02/19 23:00 0.00 4.52 ---- 3207 12.36
Data processed at Fri 20Feb2026 05:36 GMT

NOTICE: If you are parsing this page

Please convert to using our Data API. Starting early 2026 we will be migrating to: https://water.usace.army.mil with modern pages rendered in JavaScript. When this migration completes you will no longer be able to scrape this page! CWMSDataAPI (CDA)

Timeseries IDs (TSIDs)

TSIDs used from left to right in the data table
COMM.Precip-Inc.Total.1Hour.1Hour.Ccp-Rev
COMM.Stage.Inst.1Hour.0.Ccp-Rev
COMM.Stage-Alt.Inst.1Hour.0.Ccp-Rev
COMM.Flow.Inst.1Hour.0.Ccp-Rev
COMM.Volt-Battery Load.Inst.1Hour.0.Ccp-Rev

                            

All information presented herein is the property of the government of the United States of America and may be revised or deleted at any time without prior notice. Dissemination of this information without the expressed written consent of the Public Affairs Office, Tulsa District U.S. Army Corps of Engineers is strictly prohibited. These data are gathered electronically and, as presented, have NOT undergone any form of quality control. These data are NOT guaranteed to be valid or correct.